createdAt,value
2022-09-25T00:02:04.462Z,12.05
2022-09-25T00:04:32.123Z,12.08
2022-09-25T00:06:59.700Z,12.08
2022-09-25T00:09:28.572Z,12.11
2022-09-25T00:11:56.178Z,12.10
2022-09-25T00:14:23.732Z,12.08
2022-09-25T00:16:51.283Z,12.07
2022-09-25T00:19:39.358Z,12.14
2022-09-25T00:22:06.943Z,12.08
2022-09-25T00:24:36.526Z,12.07
2022-09-25T00:27:06.017Z,12.03
2022-09-25T00:29:33.580Z,12.05
2022-09-25T00:32:01.140Z,12.05
2022-09-25T00:34:28.752Z,12.04
2022-09-25T00:36:56.404Z,12.11
2022-09-25T00:39:24.017Z,12.11
2022-09-25T00:41:53.030Z,12.06
2022-09-25T00:44:56.301Z,12.07
2022-09-25T00:47:29.818Z,12.02
2022-09-25T00:49:58.892Z,12.00
2022-09-25T00:52:26.647Z,11.99
2022-09-25T00:54:56.595Z,12.02
2022-09-25T00:57:29.985Z,12.07
2022-09-25T01:00:00.416Z,12.06
2022-09-25T01:02:30.374Z,12.07
2022-09-25T01:04:59.225Z,12.07
2022-09-25T01:07:27.000Z,12.17
2022-09-25T01:09:55.077Z,12.16
2022-09-25T01:12:22.642Z,12.13
2022-09-25T01:14:51.922Z,12.18
2022-09-25T01:17:23.965Z,12.17
2022-09-25T01:19:59.539Z,12.16
2022-09-25T01:22:37.908Z,12.14
2022-09-25T01:25:11.916Z,12.17
2022-09-25T01:27:44.692Z,12.13
2022-09-25T01:30:15.052Z,12.07
2022-09-25T01:32:58.364Z,12.12
2022-09-25T01:35:37.422Z,12.16
2022-09-25T01:38:11.386Z,12.08
2022-09-25T01:40:44.194Z,12.08
2022-09-25T01:43:14.592Z,12.08
2022-09-25T01:45:45.057Z,12.05
2022-09-25T01:48:15.332Z,12.08
2022-09-25T01:50:45.997Z,12.03
2022-09-25T01:53:17.661Z,12.05
2022-09-25T01:55:48.600Z,12.01
2022-09-25T01:58:18.903Z,12.01
2022-09-25T02:00:53.066Z,12.04
2022-09-25T02:03:24.674Z,11.99
2022-09-25T02:05:54.694Z,11.89
2022-09-25T02:08:24.202Z,11.91
2022-09-25T02:10:55.839Z,11.87
2022-09-25T02:13:25.827Z,11.78
2022-09-25T02:15:56.702Z,11.93
2022-09-25T02:18:42.397Z,11.86
2022-09-25T02:21:14.667Z,11.90
2022-09-25T02:23:50.897Z,11.94
2022-09-25T02:26:23.749Z,11.87
2022-09-25T02:28:51.875Z,11.83
2022-09-25T02:31:22.224Z,11.76
2022-09-25T02:33:50.904Z,11.74
2022-09-25T02:36:19.928Z,11.80
2022-09-25T02:38:49.415Z,11.74
2022-09-25T02:41:21.242Z,11.74
2022-09-25T02:43:55.781Z,11.80
2022-09-25T02:46:30.399Z,11.82
2022-09-25T02:49:00.813Z,11.81
2022-09-25T02:51:30.926Z,11.76
2022-09-25T02:54:07.344Z,11.83
2022-09-25T02:56:37.165Z,11.76
2022-09-25T02:59:08.885Z,11.78
2022-09-25T03:01:39.750Z,11.79
2022-09-25T03:04:07.541Z,11.77
2022-09-25T03:06:35.114Z,11.76
2022-09-25T03:09:03.319Z,11.84
2022-09-25T03:11:30.871Z,11.90
2022-09-25T03:13:59.567Z,11.82
2022-09-25T03:16:33.594Z,11.87
2022-09-25T03:19:03.735Z,11.92
2022-09-25T03:21:31.936Z,11.92
2022-09-25T03:23:59.618Z,11.86
2022-09-25T03:26:28.172Z,11.97
2022-09-25T03:28:55.882Z,11.88
2022-09-25T03:31:23.935Z,11.84
2022-09-25T03:33:51.526Z,11.92
2022-09-25T03:36:22.272Z,11.92
2022-09-25T03:38:52.985Z,11.99
2022-09-25T03:41:22.606Z,11.95
2022-09-25T03:43:51.859Z,11.93
2022-09-25T03:46:21.046Z,11.91
2022-09-25T03:48:49.008Z,11.99
2022-09-25T03:51:16.742Z,11.93
2022-09-25T03:53:46.103Z,11.90
2022-09-25T03:56:15.541Z,11.95
2022-09-25T03:58:43.048Z,12.03
2022-09-25T04:01:11.021Z,12.01
2022-09-25T04:03:39.252Z,12.05
2022-09-25T04:06:08.864Z,11.91
2022-09-25T04:08:37.215Z,11.99
2022-09-25T04:11:06.612Z,11.98
2022-09-25T04:13:36.277Z,11.94
2022-09-25T04:16:06.123Z,11.93
2022-09-25T04:18:33.847Z,11.92
2022-09-25T04:21:01.752Z,11.91
2022-09-25T04:23:29.331Z,11.88
2022-09-25T04:25:57.044Z,11.88
2022-09-25T04:28:26.616Z,11.84
2022-09-25T04:30:54.205Z,11.86
2022-09-25T04:33:39.626Z,11.84
2022-09-25T04:36:07.556Z,11.73
2022-09-25T04:38:35.554Z,11.79
2022-09-25T04:41:03.839Z,11.87
2022-09-25T04:43:33.848Z,11.81
2022-09-25T04:46:02.812Z,11.74
2022-09-25T04:48:30.704Z,11.70
2022-09-25T04:50:58.321Z,11.70
2022-09-25T04:53:27.368Z,11.69
2022-09-25T04:55:55.832Z,11.71
2022-09-25T04:58:23.500Z,11.69
2022-09-25T05:00:52.792Z,11.70
2022-09-25T05:03:20.584Z,11.69
2022-09-25T05:05:48.266Z,11.52
2022-09-25T05:08:15.792Z,11.72
2022-09-25T05:10:44.479Z,11.72
2022-09-25T05:13:12.379Z,11.72
2022-09-25T05:15:39.928Z,11.71
2022-09-25T05:18:17.765Z,11.71
2022-09-25T05:20:45.335Z,11.75
2022-09-25T05:23:13.161Z,11.76
2022-09-25T05:25:40.753Z,11.60
2022-09-25T05:28:08.456Z,11.58
2022-09-25T05:30:36.958Z,11.59
2022-09-25T05:33:04.607Z,11.55
2022-09-25T05:35:34.548Z,11.60
2022-09-25T05:38:02.102Z,11.57
2022-09-25T05:40:29.753Z,11.50
2022-09-25T05:42:58.358Z,11.51
2022-09-25T05:45:25.907Z,11.43
2022-09-25T05:48:01.927Z,11.55
2022-09-25T05:50:29.585Z,11.65
2022-09-25T05:52:59.041Z,11.68
2022-09-25T05:55:26.754Z,11.67
2022-09-25T05:57:54.326Z,11.71
2022-09-25T06:00:21.951Z,11.72
2022-09-25T06:02:52.963Z,11.72
2022-09-25T06:05:20.690Z,11.80
2022-09-25T06:07:53.558Z,11.76
2022-09-25T06:10:26.164Z,11.79
2022-09-25T06:12:56.051Z,11.73
2022-09-25T06:15:24.064Z,11.80
2022-09-25T06:17:51.763Z,11.77
2022-09-25T06:20:19.591Z,11.77
2022-09-25T06:22:52.932Z,11.79
2022-09-25T06:25:20.501Z,11.85
2022-09-25T06:27:50.131Z,11.80
2022-09-25T06:30:19.003Z,11.80
2022-09-25T06:32:46.561Z,11.77
2022-09-25T06:35:14.653Z,11.79
2022-09-25T06:37:42.234Z,11.76
2022-09-25T06:40:10.779Z,11.85
2022-09-25T06:42:38.946Z,11.87
2022-09-25T06:45:10.859Z,11.83
2022-09-25T06:47:38.472Z,11.92
2022-09-25T06:50:06.572Z,11.94
2022-09-25T06:52:34.205Z,11.96
2022-09-25T06:55:01.758Z,11.97
2022-09-25T06:57:30.445Z,11.95
2022-09-25T06:59:58.028Z,11.95
2022-09-25T07:02:44.357Z,11.92
2022-09-25T07:05:13.297Z,11.96
2022-09-25T07:07:40.890Z,12.01
2022-09-25T07:10:09.237Z,12.00
2022-09-25T07:12:36.772Z,11.98
2022-09-25T07:15:04.630Z,12.05
2022-09-25T07:17:33.563Z,12.06
2022-09-25T07:20:01.111Z,12.07
2022-09-25T07:22:30.240Z,12.06
2022-09-25T07:24:57.801Z,12.07
2022-09-25T07:27:25.555Z,12.13
2022-09-25T07:29:53.337Z,12.07
2022-09-25T07:32:21.542Z,12.16
2022-09-25T07:34:51.181Z,12.12
2022-09-25T07:37:18.855Z,12.14
2022-09-25T07:39:46.420Z,12.15
2022-09-25T07:42:14.240Z,12.25
2022-09-25T07:44:46.067Z,12.36
2022-09-25T07:47:16.973Z,12.39
2022-09-25T07:49:44.540Z,12.43
2022-09-25T07:52:13.845Z,12.44
2022-09-25T07:54:43.867Z,12.53
2022-09-25T07:57:12.231Z,12.51
2022-09-25T07:59:40.095Z,12.61
2022-09-25T08:02:07.877Z,12.65
2022-09-25T08:04:35.509Z,12.66
2022-09-25T08:07:03.069Z,12.76
2022-09-25T08:09:31.957Z,12.71
2022-09-25T08:11:59.536Z,12.83
2022-09-25T08:14:27.322Z,12.93
2022-09-25T08:16:55.965Z,12.87
2022-09-25T08:19:24.044Z,12.87
2022-09-25T08:21:51.857Z,12.84
2022-09-25T08:24:19.543Z,12.82
2022-09-25T08:26:50.125Z,12.79
2022-09-25T08:29:18.170Z,12.82
2022-09-25T08:31:45.734Z,13.01
2022-09-25T08:34:39.371Z,12.93
2022-09-25T08:37:03.417Z,13.01
2022-09-25T08:39:31.012Z,13.04
2022-09-25T08:42:00.652Z,13.06
2022-09-25T08:44:32.196Z,13.08
2022-09-25T08:47:20.105Z,13.08
2022-09-25T08:49:52.107Z,13.14
2022-09-25T08:52:21.503Z,13.14
2022-09-25T08:54:49.062Z,13.39
2022-09-25T08:57:27.193Z,13.34
2022-09-25T09:00:01.547Z,13.40
2022-09-25T09:02:38.136Z,13.40
2022-09-25T09:05:09.010Z,13.32
2022-09-25T09:07:39.415Z,13.38
2022-09-25T09:10:10.369Z,13.33
2022-09-25T09:12:42.843Z,13.42
2022-09-25T09:15:22.279Z,13.30
2022-09-25T09:17:49.904Z,13.40
2022-09-25T09:20:19.690Z,13.41
2022-09-25T09:22:50.720Z,13.42
2022-09-25T09:25:28.827Z,13.45
2022-09-25T09:28:19.657Z,13.36
2022-09-25T09:30:55.139Z,13.39
2022-09-25T09:33:35.513Z,13.34
2022-09-25T09:36:09.061Z,13.27
2022-09-25T09:38:48.261Z,13.37
2022-09-25T09:41:22.570Z,13.34
2022-09-25T09:44:02.732Z,13.38
2022-09-25T09:46:38.159Z,13.32
2022-09-25T09:49:13.561Z,13.37
2022-09-25T09:51:43.368Z,13.58
2022-09-25T09:54:14.700Z,13.43
2022-09-25T09:56:43.486Z,13.57
2022-09-25T09:59:17.870Z,13.63
2022-09-25T10:01:47.496Z,13.67
2022-09-25T10:04:17.786Z,13.65
2022-09-25T10:06:47.905Z,13.61
2022-09-25T10:09:17.054Z,13.52
2022-09-25T10:11:45.594Z,13.58
2022-09-25T10:14:20.982Z,13.40
2022-09-25T10:16:50.121Z,13.39
2022-09-25T10:19:19.939Z,13.32
2022-09-25T10:21:49.470Z,13.21
2022-09-25T10:24:49.679Z,13.24
2022-09-25T10:27:29.317Z,13.33
2022-09-25T10:30:14.702Z,13.63
2022-09-25T10:32:54.943Z,13.56
2022-09-25T10:35:28.302Z,13.45
2022-09-25T10:37:58.167Z,13.66
2022-09-25T10:40:29.209Z,13.56
2022-09-25T10:43:05.128Z,13.58
2022-09-25T10:45:35.810Z,13.75
2022-09-25T10:48:20.588Z,13.55
2022-09-25T10:51:07.009Z,13.48
2022-09-25T10:53:34.522Z,13.55
2022-09-25T10:56:04.946Z,13.64
2022-09-25T10:58:37.317Z,13.54
2022-09-25T11:01:13.211Z,13.52
2022-09-25T11:03:46.872Z,13.64
2022-09-25T11:06:21.000Z,13.50
2022-09-25T11:08:51.262Z,13.61
2022-09-25T11:11:23.972Z,13.82
2022-09-25T11:13:54.194Z,13.79
2022-09-25T11:16:24.224Z,14.00
2022-09-25T11:18:52.623Z,14.10
2022-09-25T11:21:27.178Z,14.14
2022-09-25T11:24:09.258Z,14.27
2022-09-25T11:26:40.491Z,14.10
2022-09-25T11:29:13.314Z,13.91
2022-09-25T11:31:44.468Z,13.98
2022-09-25T11:34:20.455Z,13.90
2022-09-25T11:36:51.379Z,14.11
2022-09-25T11:39:42.500Z,13.92
2022-09-25T11:42:15.431Z,13.86
2022-09-25T11:44:47.671Z,13.94
2022-09-25T11:47:19.998Z,13.89
2022-09-25T11:49:49.746Z,13.63
2022-09-25T11:52:32.566Z,13.36
2022-09-25T11:55:43.533Z,13.23
2022-09-25T11:58:30.202Z,13.14
2022-09-25T12:01:03.728Z,13.10
2022-09-25T12:03:47.667Z,13.17
2022-09-25T12:06:24.583Z,13.13
2022-09-25T12:09:02.338Z,13.00
2022-09-25T12:11:38.004Z,13.10
2022-09-25T12:14:14.596Z,13.14
2022-09-25T12:16:48.885Z,12.94
2022-09-25T12:19:26.981Z,13.13
2022-09-25T12:22:01.976Z,13.11
2022-09-25T12:24:40.481Z,13.09
2022-09-25T12:27:19.503Z,12.98
2022-09-25T12:30:12.981Z,12.89
2022-09-25T12:33:03.357Z,12.87
2022-09-25T12:35:41.396Z,13.05
2022-09-25T12:38:15.535Z,12.93
2022-09-25T12:40:46.242Z,13.07
2022-09-25T12:43:19.326Z,12.85
2022-09-25T12:45:49.994Z,12.77
2022-09-25T12:48:22.928Z,12.83
2022-09-25T12:50:56.429Z,12.74
2022-09-25T12:53:30.966Z,12.89
2022-09-25T12:56:05.201Z,12.79
2022-09-25T12:58:45.394Z,12.89
2022-09-25T13:01:18.417Z,12.85
2022-09-25T13:03:50.013Z,12.83
2022-09-25T13:06:23.336Z,12.74
2022-09-25T13:08:55.510Z,12.75
2022-09-25T13:11:34.042Z,12.83
2022-09-25T13:14:03.108Z,12.70
2022-09-25T13:16:30.818Z,12.65
2022-09-25T13:19:12.254Z,12.56
2022-09-25T13:21:42.166Z,12.66
2022-09-25T13:24:13.544Z,12.71
2022-09-25T13:26:45.837Z,12.79
2022-09-25T13:29:22.498Z,12.77
2022-09-25T13:31:50.351Z,12.85
2022-09-25T13:34:19.658Z,13.02
2022-09-25T13:36:49.566Z,12.86
2022-09-25T13:39:37.725Z,13.03
2022-09-25T13:42:08.031Z,13.07
2022-09-25T13:44:57.160Z,13.22
2022-09-25T13:47:39.429Z,13.16
2022-09-25T13:50:19.756Z,13.28
2022-09-25T13:53:18.656Z,13.29
2022-09-25T13:56:21.530Z,13.54
2022-09-25T13:59:22.952Z,13.43
2022-09-25T14:01:54.086Z,13.40
2022-09-25T14:04:27.220Z,13.50
2022-09-25T14:06:58.421Z,13.50
2022-09-25T14:09:29.721Z,13.45
2022-09-25T14:12:08.065Z,13.50
2022-09-25T14:14:42.976Z,13.51
2022-09-25T14:17:15.792Z,13.44
2022-09-25T14:19:45.804Z,13.42
2022-09-25T14:22:20.628Z,13.56
2022-09-25T14:24:50.006Z,13.58
2022-09-25T14:27:22.787Z,13.72
2022-09-25T14:29:50.703Z,13.68
2022-09-25T14:32:54.017Z,13.73
2022-09-25T14:35:35.262Z,13.74
2022-09-25T14:38:17.840Z,13.86
2022-09-25T14:40:55.036Z,13.95
2022-09-25T14:43:45.084Z,14.01
2022-09-25T14:46:20.327Z,13.80
2022-09-25T14:48:50.705Z,13.96
2022-09-25T14:51:25.625Z,13.97
2022-09-25T14:53:58.688Z,13.95
2022-09-25T14:56:36.490Z,13.89
2022-09-25T14:59:14.154Z,13.83
2022-09-25T15:01:48.390Z,13.84
2022-09-25T15:04:27.958Z,13.80
2022-09-25T15:07:01.689Z,13.80
2022-09-25T15:09:32.186Z,13.74
2022-09-25T15:12:12.018Z,13.79
2022-09-25T15:14:40.198Z,13.75
2022-09-25T15:17:23.473Z,13.77
2022-09-25T15:19:51.648Z,13.75
2022-09-25T15:22:21.969Z,13.59
2022-09-25T15:24:54.346Z,13.54
2022-09-25T15:27:23.559Z,13.49
2022-09-25T15:29:52.341Z,13.66
2022-09-25T15:32:25.562Z,13.62
2022-09-25T15:35:06.626Z,13.44
2022-09-25T15:37:34.300Z,13.30
2022-09-25T15:40:04.294Z,13.36
2022-09-25T15:42:34.438Z,13.38
2022-09-25T15:45:05.705Z,13.32
2022-09-25T15:47:49.778Z,13.35
2022-09-25T15:50:23.892Z,13.19
2022-09-25T15:52:55.072Z,13.26
2022-09-25T15:55:23.615Z,13.32
2022-09-25T15:57:54.527Z,13.22
2022-09-25T16:00:41.889Z,13.19
2022-09-25T16:03:33.361Z,13.16
2022-09-25T16:06:03.462Z,12.97
2022-09-25T16:08:33.609Z,13.16
2022-09-25T16:11:13.158Z,12.99
2022-09-25T16:13:43.641Z,12.86
2022-09-25T16:16:22.070Z,12.90
2022-09-25T16:18:51.325Z,12.84
2022-09-25T16:21:22.759Z,12.88
2022-09-25T16:23:56.568Z,12.81
2022-09-25T16:26:26.479Z,12.81
2022-09-25T16:29:05.043Z,12.72
2022-09-25T16:31:33.851Z,12.71
2022-09-25T16:34:01.858Z,12.74
2022-09-25T16:36:38.828Z,12.83
2022-09-25T16:39:15.365Z,12.70
2022-09-25T16:41:46.269Z,12.70
2022-09-25T16:44:18.877Z,12.66
2022-09-25T16:46:48.181Z,12.63
2022-09-25T16:49:15.781Z,12.67
2022-09-25T16:51:45.838Z,12.60
2022-09-25T16:54:14.937Z,12.54
2022-09-25T16:56:43.624Z,12.55
2022-09-25T16:59:18.548Z,12.54
2022-09-25T17:01:46.910Z,12.53
2022-09-25T17:04:15.611Z,12.50
2022-09-25T17:06:47.514Z,12.51
2022-09-25T17:09:17.273Z,12.54
2022-09-25T17:11:46.343Z,12.46
2022-09-25T17:14:24.222Z,12.49
2022-09-25T17:16:52.446Z,12.41
2022-09-25T17:19:21.245Z,12.44
2022-09-25T17:21:51.188Z,12.32
2022-09-25T17:24:20.243Z,12.26
2022-09-25T17:26:49.126Z,12.23
2022-09-25T17:29:17.609Z,12.29
2022-09-25T17:31:46.886Z,12.22
2022-09-25T17:34:17.905Z,12.19
2022-09-25T17:36:45.642Z,12.20
2022-09-25T17:39:14.370Z,12.16
2022-09-25T17:41:42.524Z,12.16
2022-09-25T17:44:12.839Z,12.14
2022-09-25T17:46:40.803Z,12.09
2022-09-25T17:49:10.214Z,12.09
2022-09-25T17:51:38.594Z,12.12
2022-09-25T17:54:06.879Z,12.05
2022-09-25T17:56:35.278Z,11.99
2022-09-25T17:59:03.612Z,11.92
2022-09-25T18:01:36.717Z,11.94
2022-09-25T18:04:19.973Z,11.90
2022-09-25T18:06:47.780Z,11.82
2022-09-25T18:09:15.744Z,11.79
2022-09-25T18:11:44.909Z,11.71
2022-09-25T18:14:13.720Z,11.74
2022-09-25T18:16:42.784Z,11.76
2022-09-25T18:19:33.255Z,11.70
2022-09-25T18:22:20.399Z,11.66
2022-09-25T18:24:49.220Z,11.60
2022-09-25T18:27:17.355Z,11.59
2022-09-25T18:29:46.160Z,11.57
2022-09-25T18:32:14.348Z,11.55
2022-09-25T18:34:43.797Z,11.58
2022-09-25T18:37:11.711Z,11.62
2022-09-25T18:39:39.601Z,11.60
2022-09-25T18:42:07.762Z,11.53
2022-09-25T18:44:41.970Z,11.54
2022-09-25T18:47:10.662Z,11.51
2022-09-25T18:49:38.471Z,11.52
2022-09-25T18:52:07.915Z,11.45
2022-09-25T18:54:35.645Z,11.44
2022-09-25T18:57:03.242Z,11.41
2022-09-25T18:59:30.845Z,11.44
2022-09-25T19:01:58.715Z,11.41
2022-09-25T19:04:26.957Z,11.41
2022-09-25T19:06:54.517Z,11.38
2022-09-25T19:09:24.255Z,11.46
2022-09-25T19:11:51.879Z,11.26
2022-09-25T19:14:19.882Z,11.39
2022-09-25T19:16:48.186Z,11.36
2022-09-25T19:19:15.750Z,11.46
2022-09-25T19:21:44.655Z,11.35
2022-09-25T19:24:12.778Z,11.37
2022-09-25T19:26:42.673Z,11.40
2022-09-25T19:29:10.390Z,11.43
2022-09-25T19:31:40.913Z,11.43
2022-09-25T19:34:09.205Z,11.43
2022-09-25T19:36:36.883Z,11.40
2022-09-25T19:39:05.127Z,11.38
2022-09-25T19:41:34.351Z,11.32
2022-09-25T19:44:11.328Z,11.38
2022-09-25T19:46:41.502Z,11.42
2022-09-25T19:49:09.722Z,11.47
2022-09-25T19:51:37.654Z,11.49
2022-09-25T19:54:05.634Z,11.38
2022-09-25T19:56:33.492Z,11.35
2022-09-25T19:59:05.653Z,11.31
2022-09-25T20:01:33.747Z,11.26
2022-09-25T20:04:06.635Z,11.22
2022-09-25T20:06:36.695Z,11.20
2022-09-25T20:09:05.225Z,11.15
2022-09-25T20:11:34.370Z,11.12
2022-09-25T20:14:05.698Z,11.11
2022-09-25T20:16:36.284Z,11.21
2022-09-25T20:19:05.492Z,11.34
2022-09-25T20:21:35.529Z,11.18
2022-09-25T20:24:04.977Z,11.28
2022-09-25T20:26:32.738Z,11.17
2022-09-25T20:29:01.946Z,11.15
2022-09-25T20:31:32.602Z,11.13
2022-09-25T20:34:00.635Z,11.12
2022-09-25T20:36:28.265Z,11.07
2022-09-25T20:38:57.651Z,11.05
2022-09-25T20:41:27.211Z,11.00
2022-09-25T20:43:56.368Z,11.08
2022-09-25T20:46:25.147Z,11.04
2022-09-25T20:48:57.047Z,11.05
2022-09-25T20:51:26.945Z,10.89
2022-09-25T20:53:56.400Z,10.79
2022-09-25T20:56:24.080Z,10.77
2022-09-25T20:58:53.452Z,10.81
2022-09-25T21:01:22.984Z,10.68
2022-09-25T21:03:51.831Z,10.60
2022-09-25T21:06:22.621Z,10.58
2022-09-25T21:08:52.589Z,10.59
2022-09-25T21:11:20.400Z,10.64
2022-09-25T21:13:51.274Z,10.58
2022-09-25T21:16:19.652Z,10.61
2022-09-25T21:18:52.351Z,10.58
2022-09-25T21:21:21.442Z,10.43
2022-09-25T21:23:50.237Z,10.38
2022-09-25T21:26:18.605Z,10.40
2022-09-25T21:28:47.532Z,10.38
2022-09-25T21:31:17.232Z,10.27
2022-09-25T21:33:48.343Z,10.24
2022-09-25T21:36:17.683Z,10.19
2022-09-25T21:38:46.967Z,10.14
2022-09-25T21:41:16.398Z,10.13
2022-09-25T21:43:44.659Z,10.19
2022-09-25T21:46:14.159Z,10.03
2022-09-25T21:48:44.981Z,9.95
2022-09-25T21:51:14.508Z,9.93
2022-09-25T21:53:42.607Z,9.98
2022-09-25T21:56:13.755Z,9.99
2022-09-25T21:58:41.759Z,9.95
2022-09-25T22:01:11.117Z,9.98
2022-09-25T22:03:40.045Z,10.01
2022-09-25T22:06:09.861Z,9.95
2022-09-25T22:08:41.208Z,9.95
2022-09-25T22:11:09.228Z,9.90
2022-09-25T22:13:39.564Z,9.92
2022-09-25T22:16:08.830Z,9.88
2022-09-25T22:18:42.312Z,9.94
2022-09-25T22:21:10.512Z,9.88
2022-09-25T22:23:38.130Z,9.92
2022-09-25T22:26:06.124Z,9.90
2022-09-25T22:28:34.455Z,10.00
2022-09-25T22:31:06.480Z,9.93
2022-09-25T22:33:34.175Z,9.96
2022-09-25T22:36:02.475Z,9.92
2022-09-25T22:38:30.693Z,9.84
2022-09-25T22:40:58.414Z,9.85
2022-09-25T22:43:26.009Z,9.77
2022-09-25T22:45:54.471Z,9.79
2022-09-25T22:48:23.416Z,9.71
2022-09-25T22:50:55.247Z,9.75
2022-09-25T22:53:23.340Z,9.79
2022-09-25T22:55:51.652Z,9.72
2022-09-25T22:58:20.387Z,9.68
2022-09-25T23:00:50.874Z,9.64
2022-09-25T23:03:18.854Z,9.62
2022-09-25T23:05:47.917Z,9.52
2022-09-25T23:08:15.586Z,9.45
2022-09-25T23:11:06.062Z,9.53
2022-09-25T23:13:30.899Z,9.63
2022-09-25T23:15:58.748Z,9.58
2022-09-25T23:18:26.410Z,9.64
2022-09-25T23:20:55.881Z,9.62
2022-09-25T23:23:23.440Z,9.56
2022-09-25T23:25:50.981Z,9.47
2022-09-25T23:28:18.573Z,9.49
2022-09-25T23:30:46.125Z,9.42
2022-09-25T23:33:13.718Z,9.34
2022-09-25T23:35:41.274Z,9.36
2022-09-25T23:38:10.267Z,9.26
2022-09-25T23:40:38.323Z,9.28
2022-09-25T23:43:05.946Z,9.23
2022-09-25T23:45:33.617Z,9.19
2022-09-25T23:48:01.530Z,9.25
2022-09-25T23:50:29.159Z,9.25
2022-09-25T23:52:56.719Z,9.31
2022-09-25T23:55:25.632Z,9.21
2022-09-25T23:57:53.329Z,9.28
